createdAt,value
2023-09-28T00:01:42.394Z,18.80
2023-09-28T00:04:26.989Z,18.75
2023-09-28T00:07:10.959Z,19.03
2023-09-28T00:09:53.794Z,18.79
2023-09-28T00:12:37.628Z,18.95
2023-09-28T00:15:22.474Z,18.93
2023-09-28T00:18:06.947Z,19.05
2023-09-28T00:20:52.452Z,19.09
2023-09-28T00:23:36.407Z,19.12
2023-09-28T00:26:20.448Z,19.19
2023-09-28T00:29:06.105Z,19.19
2023-09-28T00:31:50.728Z,19.14
2023-09-28T00:34:33.760Z,19.03
2023-09-28T00:37:19.044Z,19.31
2023-09-28T00:40:09.130Z,19.23
2023-09-28T00:42:53.882Z,19.19
2023-09-28T00:45:38.488Z,19.27
2023-09-28T00:48:23.022Z,19.15
2023-09-28T00:51:06.039Z,19.01
2023-09-28T00:53:52.514Z,18.99
2023-09-28T00:56:37.757Z,18.97
2023-09-28T00:59:22.367Z,18.95
2023-09-28T01:02:06.500Z,18.94
2023-09-28T01:04:49.547Z,18.88
2023-09-28T01:07:34.126Z,18.90
2023-09-28T01:10:21.588Z,18.81
2023-09-28T01:13:09.749Z,18.92
2023-09-28T01:15:52.752Z,18.95
2023-09-28T01:18:37.577Z,18.92
2023-09-28T01:21:20.453Z,18.91
2023-09-28T01:24:06.067Z,18.79
2023-09-28T01:26:50.080Z,18.89
2023-09-28T01:29:33.993Z,18.87
2023-09-28T01:32:17.046Z,18.83
2023-09-28T01:35:00.994Z,18.80
2023-09-28T01:37:55.602Z,18.75
2023-09-28T01:40:41.416Z,18.79
2023-09-28T01:43:24.330Z,18.69
2023-09-28T01:46:08.308Z,17.85
2023-09-28T01:48:51.225Z,18.58
2023-09-28T01:51:35.167Z,18.48
2023-09-28T01:54:18.080Z,18.58
2023-09-28T01:57:03.383Z,18.63
2023-09-28T01:59:46.346Z,18.64
2023-09-28T02:02:30.744Z,18.42
2023-09-28T02:05:18.159Z,18.59
2023-09-28T02:08:02.665Z,18.67
2023-09-28T02:10:47.220Z,18.56
2023-09-28T02:13:32.326Z,18.48
2023-09-28T02:16:16.448Z,18.52
2023-09-28T02:18:59.467Z,18.43
2023-09-28T02:21:43.657Z,18.40
2023-09-28T02:24:27.503Z,18.38
2023-09-28T02:27:10.530Z,18.39
2023-09-28T02:29:55.990Z,18.28
2023-09-28T02:32:39.653Z,18.27
2023-09-28T02:35:25.481Z,18.14
2023-09-28T02:38:08.690Z,18.16
2023-09-28T02:40:53.050Z,18.37
2023-09-28T02:43:37.017Z,18.33
2023-09-28T02:46:21.368Z,18.19
2023-09-28T02:49:07.507Z,18.35
2023-09-28T02:51:51.922Z,18.35
2023-09-28T02:54:35.873Z,18.36
2023-09-28T02:57:19.724Z,18.21
2023-09-28T03:00:13.185Z,18.33
2023-09-28T03:02:58.957Z,18.41
2023-09-28T03:05:42.223Z,18.33
2023-09-28T03:08:26.414Z,18.25
2023-09-28T03:11:09.398Z,18.41
2023-09-28T03:13:53.549Z,18.29
2023-09-28T03:16:37.710Z,18.39
2023-09-28T03:19:22.013Z,18.53
2023-09-28T03:22:06.155Z,18.40
2023-09-28T03:24:49.238Z,18.49
2023-09-28T03:27:33.174Z,18.24
2023-09-28T03:30:17.924Z,18.51
2023-09-28T03:33:01.672Z,18.40
2023-09-28T03:35:47.360Z,18.46
2023-09-28T03:38:31.278Z,18.52
2023-09-28T03:41:15.948Z,18.57
2023-09-28T03:43:59.961Z,18.50
2023-09-28T03:46:44.023Z,18.49
2023-09-28T03:49:27.919Z,18.32
2023-09-28T03:52:13.189Z,18.35
2023-09-28T03:54:57.720Z,18.22
2023-09-28T03:57:43.948Z,18.24
2023-09-28T04:00:28.174Z,17.99
2023-09-28T04:03:12.965Z,18.09
2023-09-28T04:05:56.837Z,18.12
2023-09-28T04:08:42.144Z,18.18
2023-09-28T04:11:26.123Z,18.29
2023-09-28T04:14:10.129Z,18.30
2023-09-28T04:16:54.336Z,18.24
2023-09-28T04:19:38.620Z,18.15
2023-09-28T04:22:22.896Z,18.43
2023-09-28T04:25:09.373Z,18.42
2023-09-28T04:27:53.244Z,18.46
2023-09-28T04:30:38.249Z,18.47
2023-09-28T04:33:22.506Z,18.50
2023-09-28T04:36:09.005Z,18.51
2023-09-28T04:38:52.932Z,18.49
2023-09-28T04:41:38.246Z,18.48
2023-09-28T04:44:22.686Z,18.51
2023-09-28T04:47:06.939Z,18.54
2023-09-28T04:49:51.321Z,18.46
2023-09-28T04:52:35.223Z,18.45
2023-09-28T04:55:19.388Z,18.46
2023-09-28T04:58:04.805Z,18.47
2023-09-28T05:00:48.623Z,18.71
2023-09-28T05:03:33.097Z,18.65
2023-09-28T05:06:17.253Z,18.63
2023-09-28T05:09:01.495Z,18.64
2023-09-28T05:11:45.672Z,18.92
2023-09-28T05:14:31.066Z,18.95
2023-09-28T05:17:15.896Z,19.18
2023-09-28T05:20:00.059Z,19.22
2023-09-28T05:22:45.009Z,19.39
2023-09-28T05:25:30.038Z,19.51
2023-09-28T05:28:15.806Z,19.61
2023-09-28T05:31:01.241Z,19.49
2023-09-28T05:33:45.629Z,19.59
2023-09-28T05:36:29.672Z,19.57
2023-09-28T05:39:13.958Z,19.65
2023-09-28T05:41:58.035Z,19.79
2023-09-28T05:44:42.078Z,19.80
2023-09-28T05:47:27.573Z,19.81
2023-09-28T05:50:12.827Z,19.92
2023-09-28T05:52:57.712Z,19.98
2023-09-28T05:55:41.855Z,19.97
2023-09-28T05:58:25.780Z,19.93
2023-09-28T06:01:11.139Z,20.28
2023-09-28T06:03:56.537Z,20.17
2023-09-28T06:06:40.463Z,20.15
2023-09-28T06:09:24.404Z,20.07
2023-09-28T06:12:08.669Z,20.49
2023-09-28T06:14:52.586Z,20.65
2023-09-28T06:17:36.714Z,20.49
2023-09-28T06:20:22.398Z,20.80
2023-09-28T06:23:06.473Z,20.87
2023-09-28T06:25:50.502Z,21.00
2023-09-28T06:28:34.515Z,21.12
2023-09-28T06:31:20.352Z,21.21
2023-09-28T06:34:04.624Z,21.25
2023-09-28T06:36:52.819Z,21.45
2023-09-28T06:39:39.069Z,21.58
2023-09-28T06:42:36.274Z,21.13
2023-09-28T06:45:21.447Z,21.02
2023-09-28T06:48:18.606Z,21.15
2023-09-28T06:51:04.345Z,21.00
2023-09-28T06:53:50.033Z,20.96
2023-09-28T06:56:36.156Z,21.08
2023-09-28T06:59:20.576Z,20.60
2023-09-28T07:02:05.995Z,21.37
2023-09-28T07:04:50.838Z,21.76
2023-09-28T07:07:34.868Z,21.80
2023-09-28T07:10:20.361Z,22.34
2023-09-28T07:13:06.563Z,22.80
2023-09-28T07:15:51.024Z,22.86
2023-09-28T07:18:35.282Z,22.77
2023-09-28T07:21:19.268Z,22.36
2023-09-28T07:24:16.677Z,22.53
2023-09-28T07:27:04.466Z,22.66
2023-09-28T07:29:50.216Z,22.63
2023-09-28T07:32:34.507Z,22.89
2023-09-28T07:35:19.525Z,23.25
2023-09-28T07:38:03.649Z,23.40
2023-09-28T07:40:48.532Z,23.51
2023-09-28T07:43:34.009Z,23.64
2023-09-28T07:46:17.967Z,23.63
2023-09-28T07:49:02.104Z,23.68
2023-09-28T07:51:45.979Z,23.47
2023-09-28T07:54:29.800Z,23.58
2023-09-28T07:57:13.765Z,23.82
2023-09-28T07:59:59.197Z,23.59
2023-09-28T08:02:43.888Z,23.56
2023-09-28T08:05:28.419Z,23.21
2023-09-28T08:08:16.811Z,23.12
2023-09-28T08:11:02.437Z,23.37
2023-09-28T08:13:46.435Z,23.53
2023-09-28T08:16:31.885Z,23.76
2023-09-28T08:19:15.890Z,24.02
2023-09-28T08:22:00.140Z,24.34
2023-09-28T08:24:44.406Z,24.76
2023-09-28T08:27:28.388Z,24.48
2023-09-28T08:30:13.085Z,24.14
2023-09-28T08:32:58.461Z,24.07
2023-09-28T08:35:42.500Z,24.21
2023-09-28T08:38:27.209Z,24.31
2023-09-28T08:41:12.085Z,24.33
2023-09-28T08:44:05.305Z,24.27
2023-09-28T08:46:51.166Z,24.40
2023-09-28T08:49:38.411Z,24.57
2023-09-28T08:52:24.270Z,24.61
2023-09-28T08:55:11.194Z,24.67
2023-09-28T08:57:56.158Z,24.67
2023-09-28T09:00:41.705Z,24.75
2023-09-28T09:03:26.363Z,24.81
2023-09-28T09:06:13.090Z,24.96
2023-09-28T09:09:02.863Z,24.64
2023-09-28T09:11:52.790Z,24.76
2023-09-28T09:14:37.747Z,25.26
2023-09-28T09:17:21.802Z,25.56
2023-09-28T09:20:10.767Z,25.37
2023-09-28T09:23:01.382Z,25.55
2023-09-28T09:25:48.459Z,25.33
2023-09-28T09:28:34.646Z,25.20
2023-09-28T09:31:18.875Z,25.29
2023-09-28T09:34:05.987Z,25.45
2023-09-28T09:36:57.568Z,25.22
2023-09-28T09:39:43.245Z,25.18
2023-09-28T09:42:28.958Z,25.68
2023-09-28T09:45:14.361Z,25.81
2023-09-28T09:47:59.732Z,25.41
2023-09-28T09:50:45.911Z,25.74
2023-09-28T09:53:32.153Z,25.48
2023-09-28T09:56:18.065Z,26.06
2023-09-28T09:59:07.413Z,26.52
2023-09-28T10:01:53.467Z,26.78
2023-09-28T10:04:38.172Z,26.76
2023-09-28T10:07:34.153Z,26.10
2023-09-28T10:10:30.094Z,26.41
2023-09-28T10:13:16.489Z,26.41
2023-09-28T10:16:04.313Z,26.25
2023-09-28T10:18:50.832Z,25.88
2023-09-28T10:21:39.118Z,26.18
2023-09-28T10:24:41.326Z,26.08
2023-09-28T10:27:25.378Z,25.95
2023-09-28T10:30:20.259Z,25.59
2023-09-28T10:33:12.127Z,25.90
2023-09-28T10:36:13.492Z,25.65
2023-09-28T10:39:12.911Z,25.37
2023-09-28T10:42:06.954Z,25.45
2023-09-28T10:44:52.542Z,25.95
2023-09-28T10:50:40.261Z,26.02
2023-09-28T10:53:24.900Z,26.25
2023-09-28T10:56:09.184Z,25.89
2023-09-28T10:58:59.292Z,25.43
2023-09-28T11:01:44.159Z,25.86
2023-09-28T11:04:43.207Z,26.69
2023-09-28T11:07:27.804Z,26.60
2023-09-28T11:10:13.067Z,26.38
2023-09-28T11:12:57.024Z,26.28
2023-09-28T11:15:42.633Z,26.29
2023-09-28T11:21:31.126Z,25.50
2023-09-28T11:27:17.593Z,25.58
2023-09-28T11:30:03.882Z,25.65
2023-09-28T11:32:53.215Z,25.65
2023-09-28T11:35:39.747Z,26.12
2023-09-28T11:38:23.853Z,25.86
2023-09-28T11:41:08.148Z,25.59
2023-09-28T11:43:55.080Z,25.35
2023-09-28T11:46:39.947Z,25.58
2023-09-28T11:49:25.851Z,25.83
2023-09-28T11:52:11.839Z,26.13
2023-09-28T11:54:55.881Z,26.30
2023-09-28T11:57:39.840Z,26.53
2023-09-28T12:03:27.745Z,26.49
2023-09-28T12:06:14.135Z,26.35
2023-09-28T12:08:58.124Z,26.36
2023-09-28T12:11:43.242Z,26.48
2023-09-28T12:14:27.406Z,26.14
2023-09-28T12:17:11.444Z,26.32
2023-09-28T12:19:55.518Z,26.28
2023-09-28T12:25:43.198Z,26.82
2023-09-28T12:28:27.154Z,25.91
2023-09-28T12:34:15.055Z,26.42
2023-09-28T12:36:59.299Z,25.96
2023-09-28T12:39:44.878Z,25.81
2023-09-28T12:42:29.027Z,26.02
2023-09-28T12:45:13.163Z,26.39
2023-09-28T12:47:57.206Z,26.26
2023-09-28T12:50:41.269Z,25.96
2023-09-28T12:53:27.402Z,26.17
2023-09-28T12:56:14.231Z,26.50
2023-09-28T12:58:58.372Z,26.28
2023-09-28T13:01:42.414Z,26.04
2023-09-28T13:04:26.520Z,26.18
2023-09-28T13:07:10.869Z,26.09
2023-09-28T13:09:54.754Z,25.92
2023-09-28T13:12:40.530Z,25.70
2023-09-28T13:15:24.653Z,25.96
2023-09-28T13:18:11.175Z,25.71
2023-09-28T13:20:55.073Z,25.85
2023-09-28T13:23:39.097Z,25.62
2023-09-28T13:26:25.385Z,25.58
2023-09-28T13:29:10.730Z,25.63
2023-09-28T13:31:55.813Z,25.88
2023-09-28T13:34:39.905Z,25.61
2023-09-28T13:37:24.008Z,25.30
2023-09-28T13:40:17.010Z,25.42
2023-09-28T13:43:01.352Z,25.70
2023-09-28T13:45:48.738Z,25.70
2023-09-28T13:48:33.188Z,25.10
2023-09-28T13:51:17.509Z,25.29
2023-09-28T13:54:01.694Z,24.79
2023-09-28T13:56:45.833Z,25.20
2023-09-28T13:59:30.270Z,24.99
2023-09-28T14:02:16.183Z,25.17
2023-09-28T14:05:02.233Z,25.09
2023-09-28T14:07:47.474Z,25.02
2023-09-28T14:10:31.993Z,25.23
2023-09-28T14:13:16.933Z,25.12
2023-09-28T14:16:02.666Z,24.92
2023-09-28T14:18:48.903Z,24.93
2023-09-28T14:21:33.227Z,24.87
2023-09-28T14:24:17.861Z,24.94
2023-09-28T14:27:01.951Z,24.89
2023-09-28T14:29:46.437Z,24.66
2023-09-28T14:32:31.044Z,24.75
2023-09-28T14:35:18.074Z,24.58
2023-09-28T14:38:02.357Z,24.75
2023-09-28T14:40:46.898Z,24.57
2023-09-28T14:43:31.124Z,24.80
2023-09-28T14:46:15.567Z,24.86
2023-09-28T14:49:00.795Z,24.93
2023-09-28T14:51:46.650Z,24.82
2023-09-28T14:54:30.822Z,25.06
2023-09-28T14:57:14.963Z,24.82
2023-09-28T14:59:59.330Z,24.68
2023-09-28T15:02:44.869Z,24.70
2023-09-28T15:05:29.610Z,24.43
2023-09-28T15:08:15.670Z,24.68
2023-09-28T15:10:59.871Z,24.97
2023-09-28T15:13:44.030Z,24.86
2023-09-28T15:16:28.329Z,24.79
2023-09-28T15:19:12.557Z,24.77
2023-09-28T15:21:56.634Z,24.51
2023-09-28T15:24:42.778Z,24.39
2023-09-28T15:27:27.074Z,24.30
2023-09-28T15:30:12.744Z,24.30
2023-09-28T15:32:56.947Z,23.97
2023-09-28T15:35:41.306Z,23.95
2023-09-28T15:38:25.568Z,23.83
2023-09-28T15:41:35.308Z,23.91
2023-09-28T15:44:19.687Z,23.58
2023-09-28T15:47:04.325Z,23.74
2023-09-28T15:49:49.464Z,23.75
2023-09-28T15:52:34.267Z,23.86
2023-09-28T15:55:18.817Z,23.85
2023-09-28T15:58:04.547Z,23.66
2023-09-28T16:00:50.217Z,23.42
2023-09-28T16:03:34.365Z,23.51
2023-09-28T16:06:19.096Z,23.86
2023-09-28T16:09:04.410Z,23.55
2023-09-28T16:11:48.825Z,23.54
2023-09-28T16:14:35.141Z,23.42
2023-09-28T16:17:19.925Z,23.64
2023-09-28T16:20:04.213Z,23.55
2023-09-28T16:22:48.715Z,23.51
2023-09-28T16:25:34.221Z,23.37
2023-09-28T16:28:19.507Z,23.21
2023-09-28T16:31:06.486Z,23.09
2023-09-28T16:33:50.841Z,23.16
2023-09-28T16:36:35.456Z,23.02
2023-09-28T16:39:19.672Z,23.00
2023-09-28T16:42:03.859Z,22.90
2023-09-28T16:44:47.692Z,22.39
2023-09-28T16:47:33.283Z,22.64
2023-09-28T16:50:17.557Z,22.52
2023-09-28T16:53:02.808Z,22.41
2023-09-28T16:55:46.886Z,22.56
2023-09-28T16:58:30.803Z,22.57
2023-09-28T17:01:15.307Z,22.52
2023-09-28T17:04:01.078Z,22.27
2023-09-28T17:06:45.153Z,22.24
2023-09-28T17:09:29.166Z,22.16
2023-09-28T17:12:13.648Z,22.32
2023-09-28T17:14:57.638Z,22.14
2023-09-28T17:17:41.800Z,22.00
2023-09-28T17:20:27.404Z,22.03
2023-09-28T17:23:11.598Z,21.96
2023-09-28T17:25:57.690Z,21.83
2023-09-28T17:28:42.715Z,21.67
2023-09-28T17:31:27.239Z,21.46
2023-09-28T17:34:11.819Z,21.46
2023-09-28T17:36:57.483Z,21.54
2023-09-28T17:39:41.750Z,21.30
2023-09-28T17:42:26.557Z,21.42
2023-09-28T17:45:11.064Z,21.46
2023-09-28T17:47:55.602Z,21.43
2023-09-28T17:50:39.978Z,21.37
2023-09-28T17:53:25.956Z,21.35
2023-09-28T17:56:10.292Z,21.34
2023-09-28T17:58:55.631Z,21.40
2023-09-28T18:01:43.201Z,21.45
2023-09-28T18:04:27.805Z,21.66
2023-09-28T18:07:14.919Z,21.42
2023-09-28T18:10:00.739Z,21.27
2023-09-28T18:12:45.705Z,21.40
2023-09-28T18:15:30.359Z,21.32
2023-09-28T18:18:14.994Z,21.17
2023-09-28T18:20:59.613Z,21.24
2023-09-28T18:23:47.668Z,21.32
2023-09-28T18:26:34.756Z,20.79
2023-09-28T18:29:19.571Z,21.08
2023-09-28T18:32:04.048Z,21.14
2023-09-28T18:34:50.873Z,21.14
2023-09-28T18:37:35.908Z,21.04
2023-09-28T18:40:23.468Z,20.83
2023-09-28T18:43:09.974Z,20.90
2023-09-28T18:45:55.990Z,20.84
2023-09-28T18:48:40.993Z,20.69
2023-09-28T18:51:26.378Z,20.52
2023-09-28T18:54:11.813Z,20.38
2023-09-28T18:56:56.509Z,20.31
2023-09-28T18:59:43.425Z,19.91
2023-09-28T19:02:28.973Z,20.10
2023-09-28T19:05:15.225Z,20.22
2023-09-28T19:07:59.985Z,20.09
2023-09-28T19:10:45.266Z,20.05
2023-09-28T19:13:32.519Z,19.61
2023-09-28T19:16:18.451Z,19.66
2023-09-28T19:19:02.841Z,19.68
2023-09-28T19:21:50.175Z,19.69
2023-09-28T19:24:36.233Z,19.40
2023-09-28T19:27:35.711Z,19.48
2023-09-28T19:30:23.960Z,19.56
2023-09-28T19:33:10.289Z,19.38
2023-09-28T19:35:55.293Z,19.29
2023-09-28T19:38:40.810Z,19.12
2023-09-28T19:41:29.833Z,19.16
2023-09-28T19:44:14.992Z,19.28
2023-09-28T19:46:59.697Z,19.44
2023-09-28T19:49:45.616Z,19.51
2023-09-28T19:52:33.934Z,19.33
2023-09-28T19:55:18.914Z,19.58
2023-09-28T19:58:03.482Z,19.64
2023-09-28T20:00:47.963Z,19.67
2023-09-28T20:03:32.524Z,19.71
2023-09-28T20:06:21.862Z,19.57
2023-09-28T20:09:07.675Z,19.74
2023-09-28T20:11:52.586Z,18.93
2023-09-28T20:14:36.813Z,19.69
2023-09-28T20:17:21.049Z,19.52
2023-09-28T20:20:06.961Z,19.62
2023-09-28T20:22:57.195Z,19.77
2023-09-28T20:25:42.570Z,19.53
2023-09-28T20:28:27.809Z,19.63
2023-09-28T20:31:12.035Z,19.60
2023-09-28T20:33:56.145Z,19.41
2023-09-28T20:36:40.337Z,19.30
2023-09-28T20:39:25.646Z,19.33
2023-09-28T20:42:10.458Z,19.39
2023-09-28T20:44:54.828Z,19.57
2023-09-28T20:47:39.321Z,19.28
2023-09-28T20:50:23.551Z,18.95
2023-09-28T20:53:07.756Z,19.37
2023-09-28T20:55:53.060Z,18.80
2023-09-28T20:58:36.950Z,18.65
2023-09-28T21:01:20.881Z,18.43
2023-09-28T21:04:05.208Z,18.69
2023-09-28T21:06:49.241Z,18.77
2023-09-28T21:09:33.234Z,18.79
2023-09-28T21:12:18.523Z,18.60
2023-09-28T21:15:02.900Z,18.76
2023-09-28T21:17:49.050Z,18.62
2023-09-28T21:20:33.399Z,18.82
2023-09-28T21:23:17.592Z,18.93
2023-09-28T21:26:01.826Z,19.19
2023-09-28T21:28:47.475Z,18.99
2023-09-28T21:31:31.594Z,18.98
2023-09-28T21:34:15.961Z,19.02
2023-09-28T21:37:00.099Z,18.91
2023-09-28T21:39:44.448Z,19.00
2023-09-28T21:42:28.966Z,18.81
2023-09-28T21:45:14.970Z,18.97
2023-09-28T21:47:59.218Z,18.74
2023-09-28T21:50:43.705Z,19.12
2023-09-28T21:53:28.049Z,18.92
2023-09-28T21:56:12.215Z,19.00
2023-09-28T21:58:56.430Z,18.94
2023-09-28T22:01:42.569Z,19.02
2023-09-28T22:04:26.521Z,19.05
2023-09-28T22:07:10.422Z,19.11
2023-09-28T22:09:55.010Z,18.87
2023-09-28T22:12:38.976Z,18.74
2023-09-28T22:15:23.421Z,18.96
2023-09-28T22:18:10.769Z,18.91
2023-09-28T22:20:54.901Z,18.95
2023-09-28T22:23:38.835Z,18.75
2023-09-28T22:26:22.929Z,18.59
2023-09-28T22:29:07.089Z,18.36
2023-09-28T22:31:51.061Z,18.47
2023-09-28T22:34:36.671Z,18.41
2023-09-28T22:37:20.605Z,18.39
2023-09-28T22:40:24.011Z,18.30
2023-09-28T22:43:10.626Z,18.25
2023-09-28T22:45:54.570Z,18.37
2023-09-28T22:48:38.736Z,18.29
2023-09-28T22:51:23.992Z,18.33
2023-09-28T22:54:09.006Z,18.20
2023-09-28T22:56:53.098Z,18.12
2023-09-28T22:59:37.852Z,18.25
2023-09-28T23:02:21.896Z,18.28
2023-09-28T23:05:06.625Z,18.04
2023-09-28T23:07:52.120Z,18.03
2023-09-28T23:10:36.360Z,18.13
2023-09-28T23:13:20.245Z,17.92
2023-09-28T23:16:06.702Z,17.84
2023-09-28T23:18:51.835Z,17.90
2023-09-28T23:21:36.581Z,17.70
2023-09-28T23:24:23.379Z,17.93
2023-09-28T23:27:07.495Z,17.81
2023-09-28T23:29:52.468Z,17.80
2023-09-28T23:32:38.143Z,17.78
2023-09-28T23:35:25.482Z,17.67
2023-09-28T23:38:11.754Z,17.55
2023-09-28T23:40:57.841Z,17.46
2023-09-28T23:43:42.135Z,17.68
2023-09-28T23:46:26.323Z,17.60
2023-09-28T23:49:11.292Z,17.66
2023-09-28T23:51:55.629Z,17.54
2023-09-28T23:54:40.012Z,17.42
2023-09-28T23:57:26.197Z,17.40
